sensor_id;sensor_type;location;lat;lon;timestamp;temperature;humidity
21403;DHT22;10862;51.886;17.078;2024-01-07T00:00:22;-1.50;1.00
21403;DHT22;10862;51.886;17.078;2024-01-07T00:02:47;-1.50;1.00
21403;DHT22;10862;51.886;17.078;2024-01-07T00:05:13;-1.50;1.00
21403;DHT22;10862;51.886;17.078;2024-01-07T00:07:38;-1.60;1.00
21403;DHT22;10862;51.886;17.078;2024-01-07T00:10:04;-1.60;1.00
21403;DHT22;10862;51.886;17.078;2024-01-07T00:12:31;-1.60;1.00
21403;DHT22;10862;51.886;17.078;2024-01-07T00:14:56;-1.60;1.00
21403;DHT22;10862;51.886;17.078;2024-01-07T00:17:23;-1.60;1.00
21403;DHT22;10862;51.886;17.078;2024-01-07T00:19:48;-1.50;1.00
21403;DHT22;10862;51.886;17.078;2024-01-07T00:22:14;-1.60;1.00
21403;DHT22;10862;51.886;17.078;2024-01-07T00:24:40;-1.70;1.00
21403;DHT22;10862;51.886;17.078;2024-01-07T00:27:05;-1.70;1.00
21403;DHT22;10862;51.886;17.078;2024-01-07T00:29:33;-1.70;1.00
21403;DHT22;10862;51.886;17.078;2024-01-07T00:32:00;-1.80;1.00
21403;DHT22;10862;51.886;17.078;2024-01-07T00:34:25;-1.70;1.00
21403;DHT22;10862;51.886;17.078;2024-01-07T00:36:51;-1.70;1.00
21403;DHT22;10862;51.886;17.078;2024-01-07T00:39:17;-1.70;1.00
21403;DHT22;10862;51.886;17.078;2024-01-07T00:41:42;-1.70;1.00
21403;DHT22;10862;51.886;17.078;2024-01-07T00:44:08;-1.80;1.00
21403;DHT22;10862;51.886;17.078;2024-01-07T00:46:33;-1.80;1.00
21403;DHT22;10862;51.886;17.078;2024-01-07T00:48:59;-1.90;1.00
21403;DHT22;10862;51.886;17.078;2024-01-07T00:51:24;-1.90;1.00
21403;DHT22;10862;51.886;17.078;2024-01-07T00:53:50;-1.90;1.00
21403;DHT22;10862;51.886;17.078;2024-01-07T00:56:16;-1.80;1.00
21403;DHT22;10862;51.886;17.078;2024-01-07T00:58:41;-1.90;1.00
21403;DHT22;10862;51.886;17.078;2024-01-07T01:01:07;-1.80;1.00
21403;DHT22;10862;51.886;17.078;2024-01-07T01:03:32;-1.80;1.00
21403;DHT22;10862;51.886;17.078;2024-01-07T01:05:58;-1.70;1.00
21403;DHT22;10862;51.886;17.078;2024-01-07T01:08:24;-1.70;1.00
21403;DHT22;10862;51.886;17.078;2024-01-07T01:10:49;-1.80;1.00
21403;DHT22;10862;51.886;17.078;2024-01-07T01:13:15;-1.70;1.00
21403;DHT22;10862;51.886;17.078;2024-01-07T01:15:40;-1.80;1.00
21403;DHT22;10862;51.886;17.078;2024-01-07T01:18:06;-1.80;1.00
21403;DHT22;10862;51.886;17.078;2024-01-07T01:20:32;-1.90;1.00
21403;DHT22;10862;51.886;17.078;2024-01-07T01:22:57;-1.90;1.00
21403;DHT22;10862;51.886;17.078;2024-01-07T01:25:23;-1.80;1.00
21403;DHT22;10862;51.886;17.078;2024-01-07T01:27:48;-1.90;1.00
21403;DHT22;10862;51.886;17.078;2024-01-07T01:30:14;-1.80;1.00
21403;DHT22;10862;51.886;17.078;2024-01-07T01:32:41;-1.80;1.00
21403;DHT22;10862;51.886;17.078;2024-01-07T01:35:07;-1.80;1.00
21403;DHT22;10862;51.886;17.078;2024-01-07T01:37:33;-1.80;1.00
21403;DHT22;10862;51.886;17.078;2024-01-07T01:39:59;-1.80;1.00
21403;DHT22;10862;51.886;17.078;2024-01-07T01:42:25;-1.80;1.00
21403;DHT22;10862;51.886;17.078;2024-01-07T01:44:50;-1.90;1.00
21403;DHT22;10862;51.886;17.078;2024-01-07T01:47:17;-1.80;1.00
21403;DHT22;10862;51.886;17.078;2024-01-07T01:49:44;-1.90;1.00
21403;DHT22;10862;51.886;17.078;2024-01-07T01:52:11;-1.90;1.00
21403;DHT22;10862;51.886;17.078;2024-01-07T01:54:37;-1.90;15.90
21403;DHT22;10862;51.886;17.078;2024-01-07T01:57:05;-1.90;96.20
21403;DHT22;10862;51.886;17.078;2024-01-07T01:59:32;-1.90;1.00
21403;DHT22;10862;51.886;17.078;2024-01-07T02:01:59;-2.00;1.00
21403;DHT22;10862;51.886;17.078;2024-01-07T02:04:25;-1.90;1.00
21403;DHT22;10862;51.886;17.078;2024-01-07T02:06:50;-1.90;22.20
21403;DHT22;10862;51.886;17.078;2024-01-07T02:09:16;-1.90;26.30
21403;DHT22;10862;51.886;17.078;2024-01-07T02:11:42;-1.90;47.00
21403;DHT22;10862;51.886;17.078;2024-01-07T02:14:07;-1.90;50.00
21403;DHT22;10862;51.886;17.078;2024-01-07T02:16:33;-1.90;99.90
21403;DHT22;10862;51.886;17.078;2024-01-07T02:18:58;-2.00;55.80
21403;DHT22;10862;51.886;17.078;2024-01-07T02:21:24;-2.00;91.70
21403;DHT22;10862;51.886;17.078;2024-01-07T02:23:50;-2.00;86.40
21403;DHT22;10862;51.886;17.078;2024-01-07T02:26:15;-2.00;99.90
21403;DHT22;10862;51.886;17.078;2024-01-07T02:28:41;-1.90;99.90
21403;DHT22;10862;51.886;17.078;2024-01-07T02:31:06;-1.80;99.90
21403;DHT22;10862;51.886;17.078;2024-01-07T02:33:32;-2.00;1.00
21403;DHT22;10862;51.886;17.078;2024-01-07T02:35:58;-2.00;1.00
21403;DHT22;10862;51.886;17.078;2024-01-07T02:38:24;-2.00;99.90
21403;DHT22;10862;51.886;17.078;2024-01-07T02:40:49;-2.00;1.00
21403;DHT22;10862;51.886;17.078;2024-01-07T02:43:15;-1.90;16.30
21403;DHT22;10862;51.886;17.078;2024-01-07T02:45:40;-2.00;99.90
21403;DHT22;10862;51.886;17.078;2024-01-07T02:48:06;-2.00;99.90
21403;DHT22;10862;51.886;17.078;2024-01-07T02:50:32;-2.00;1.00
21403;DHT22;10862;51.886;17.078;2024-01-07T02:52:58;-2.00;48.80
21403;DHT22;10862;51.886;17.078;2024-01-07T02:55:23;-2.00;99.90
21403;DHT22;10862;51.886;17.078;2024-01-07T02:57:49;-1.90;99.90
21403;DHT22;10862;51.886;17.078;2024-01-07T03:00:15;-2.00;99.90
21403;DHT22;10862;51.886;17.078;2024-01-07T03:02:40;-2.00;99.90
21403;DHT22;10862;51.886;17.078;2024-01-07T03:05:06;-2.00;99.90
21403;DHT22;10862;51.886;17.078;2024-01-07T03:07:32;-2.00;79.60
21403;DHT22;10862;51.886;17.078;2024-01-07T03:09:58;-2.00;99.90
21403;DHT22;10862;51.886;17.078;2024-01-07T03:12:23;-2.00;99.90
21403;DHT22;10862;51.886;17.078;2024-01-07T03:14:49;-2.00;99.90
21403;DHT22;10862;51.886;17.078;2024-01-07T03:17:14;-2.10;1.00
21403;DHT22;10862;51.886;17.078;2024-01-07T03:19:42;-2.10;1.00
21403;DHT22;10862;51.886;17.078;2024-01-07T03:22:08;-2.20;1.00
21403;DHT22;10862;51.886;17.078;2024-01-07T03:24:33;-2.20;1.00
21403;DHT22;10862;51.886;17.078;2024-01-07T03:26:59;-2.20;35.00
21403;DHT22;10862;51.886;17.078;2024-01-07T03:29:25;-2.00;13.90
21403;DHT22;10862;51.886;17.078;2024-01-07T03:31:50;-2.00;1.00
21403;DHT22;10862;51.886;17.078;2024-01-07T03:34:18;-2.00;1.00
21403;DHT22;10862;51.886;17.078;2024-01-07T03:36:44;-1.90;1.00
21403;DHT22;10862;51.886;17.078;2024-01-07T03:39:09;-2.10;1.00
21403;DHT22;10862;51.886;17.078;2024-01-07T03:41:35;-2.10;1.00
21403;DHT22;10862;51.886;17.078;2024-01-07T03:44:00;-2.10;1.00
21403;DHT22;10862;51.886;17.078;2024-01-07T03:46:26;-2.10;1.00
21403;DHT22;10862;51.886;17.078;2024-01-07T03:48:51;-2.10;1.00
21403;DHT22;10862;51.886;17.078;2024-01-07T03:51:17;-2.10;1.00
21403;DHT22;10862;51.886;17.078;2024-01-07T03:53:43;-2.20;60.50
21403;DHT22;10862;51.886;17.078;2024-01-07T03:56:08;-2.20;99.90
21403;DHT22;10862;51.886;17.078;2024-01-07T03:58:34;-2.20;99.90
21403;DHT22;10862;51.886;17.078;2024-01-07T04:01:00;-2.20;1.00
21403;DHT22;10862;51.886;17.078;2024-01-07T04:03:26;-2.20;1.00
21403;DHT22;10862;51.886;17.078;2024-01-07T04:05:52;-2.20;1.00
21403;DHT22;10862;51.886;17.078;2024-01-07T04:08:17;-2.20;1.00
21403;DHT22;10862;51.886;17.078;2024-01-07T04:10:43;-2.20;1.00
21403;DHT22;10862;51.886;17.078;2024-01-07T04:13:09;-2.30;1.00
21403;DHT22;10862;51.886;17.078;2024-01-07T04:15:35;-2.20;1.00
21403;DHT22;10862;51.886;17.078;2024-01-07T04:18:04;-2.30;99.90
21403;DHT22;10862;51.886;17.078;2024-01-07T04:20:30;-2.40;31.90
21403;DHT22;10862;51.886;17.078;2024-01-07T04:22:56;-2.40;7.00
21403;DHT22;10862;51.886;17.078;2024-01-07T04:25:23;-2.60;67.70
21403;DHT22;10862;51.886;17.078;2024-01-07T04:27:49;-2.60;99.90
21403;DHT22;10862;51.886;17.078;2024-01-07T04:30:14;-2.60;24.70
21403;DHT22;10862;51.886;17.078;2024-01-07T04:32:40;-2.70;99.90
21403;DHT22;10862;51.886;17.078;2024-01-07T04:35:05;-2.70;99.90
21403;DHT22;10862;51.886;17.078;2024-01-07T04:37:32;-2.60;99.90
21403;DHT22;10862;51.886;17.078;2024-01-07T04:39:57;-2.50;99.90
21403;DHT22;10862;51.886;17.078;2024-01-07T04:42:23;-2.60;99.90
21403;DHT22;10862;51.886;17.078;2024-01-07T04:44:49;-2.60;99.90
21403;DHT22;10862;51.886;17.078;2024-01-07T04:47:28;-2.60;99.90
21403;DHT22;10862;51.886;17.078;2024-01-07T04:49:54;-2.60;99.90
21403;DHT22;10862;51.886;17.078;2024-01-07T04:52:22;-2.50;99.90
21403;DHT22;10862;51.886;17.078;2024-01-07T04:54:47;-2.60;1.00
21403;DHT22;10862;51.886;17.078;2024-01-07T04:57:13;-2.60;1.00
21403;DHT22;10862;51.886;17.078;2024-01-07T04:59:38;-2.60;1.00
21403;DHT22;10862;51.886;17.078;2024-01-07T05:02:04;-2.60;1.00
21403;DHT22;10862;51.886;17.078;2024-01-07T05:04:30;-2.70;1.00
21403;DHT22;10862;51.886;17.078;2024-01-07T05:06:55;-2.80;99.90
21403;DHT22;10862;51.886;17.078;2024-01-07T05:09:21;-2.80;99.90
21403;DHT22;10862;51.886;17.078;2024-01-07T05:11:46;-2.80;99.90
21403;DHT22;10862;51.886;17.078;2024-01-07T05:14:12;-2.80;99.90
21403;DHT22;10862;51.886;17.078;2024-01-07T05:16:37;-2.90;99.90
21403;DHT22;10862;51.886;17.078;2024-01-07T05:19:03;-2.90;93.00
21403;DHT22;10862;51.886;17.078;2024-01-07T05:21:29;-2.90;99.90
21403;DHT22;10862;51.886;17.078;2024-01-07T05:23:54;-2.90;99.90
21403;DHT22;10862;51.886;17.078;2024-01-07T05:26:21;-2.90;99.90
21403;DHT22;10862;51.886;17.078;2024-01-07T05:28:46;-2.70;99.90
21403;DHT22;10862;51.886;17.078;2024-01-07T05:31:18;-2.60;1.00
21403;DHT22;10862;51.886;17.078;2024-01-07T05:33:44;-2.70;1.00
21403;DHT22;10862;51.886;17.078;2024-01-07T05:36:11;-2.90;1.00
21403;DHT22;10862;51.886;17.078;2024-01-07T05:38:36;-3.00;1.00
21403;DHT22;10862;51.886;17.078;2024-01-07T05:41:02;-2.90;1.00
21403;DHT22;10862;51.886;17.078;2024-01-07T05:43:28;-3.00;1.00
21403;DHT22;10862;51.886;17.078;2024-01-07T05:45:53;-3.00;1.00
21403;DHT22;10862;51.886;17.078;2024-01-07T05:48:21;-3.10;1.00
21403;DHT22;10862;51.886;17.078;2024-01-07T05:50:47;-3.10;1.00
21403;DHT22;10862;51.886;17.078;2024-01-07T05:53:13;-3.10;99.90
21403;DHT22;10862;51.886;17.078;2024-01-07T05:55:38;-3.10;99.90
21403;DHT22;10862;51.886;17.078;2024-01-07T05:58:04;-3.20;99.90
21403;DHT22;10862;51.886;17.078;2024-01-07T06:00:30;-3.20;99.90
21403;DHT22;10862;51.886;17.078;2024-01-07T06:02:56;-3.20;1.00
21403;DHT22;10862;51.886;17.078;2024-01-07T06:05:22;-3.30;1.00
21403;DHT22;10862;51.886;17.078;2024-01-07T06:07:47;-3.20;1.00
21403;DHT22;10862;51.886;17.078;2024-01-07T06:10:13;-3.30;1.00
21403;DHT22;10862;51.886;17.078;2024-01-07T06:12:38;-3.30;1.00
21403;DHT22;10862;51.886;17.078;2024-01-07T06:15:04;-3.20;1.00
21403;DHT22;10862;51.886;17.078;2024-01-07T06:17:31;-3.10;1.00
21403;DHT22;10862;51.886;17.078;2024-01-07T06:19:56;-3.10;1.00
21403;DHT22;10862;51.886;17.078;2024-01-07T06:22:22;-3.10;1.00
21403;DHT22;10862;51.886;17.078;2024-01-07T06:24:48;-3.20;1.00
21403;DHT22;10862;51.886;17.078;2024-01-07T06:27:14;-3.30;1.00
21403;DHT22;10862;51.886;17.078;2024-01-07T06:29:40;-3.40;1.00
21403;DHT22;10862;51.886;17.078;2024-01-07T06:32:05;-3.50;1.00
21403;DHT22;10862;51.886;17.078;2024-01-07T06:34:31;-3.60;1.00
21403;DHT22;10862;51.886;17.078;2024-01-07T06:37:00;-3.70;1.00
21403;DHT22;10862;51.886;17.078;2024-01-07T06:39:25;-3.70;1.00
21403;DHT22;10862;51.886;17.078;2024-01-07T06:41:52;-3.70;1.00
21403;DHT22;10862;51.886;17.078;2024-01-07T06:44:18;-3.70;1.00
21403;DHT22;10862;51.886;17.078;2024-01-07T06:46:44;-3.80;1.00
21403;DHT22;10862;51.886;17.078;2024-01-07T06:49:10;-3.70;1.00
21403;DHT22;10862;51.886;17.078;2024-01-07T06:51:37;-3.80;1.00
21403;DHT22;10862;51.886;17.078;2024-01-07T06:54:05;-3.90;1.00
21403;DHT22;10862;51.886;17.078;2024-01-07T06:56:31;-3.90;1.00
21403;DHT22;10862;51.886;17.078;2024-01-07T06:58:57;-3.80;1.00
21403;DHT22;10862;51.886;17.078;2024-01-07T07:01:23;-3.90;1.00
21403;DHT22;10862;51.886;17.078;2024-01-07T07:03:49;-3.90;1.00
21403;DHT22;10862;51.886;17.078;2024-01-07T07:06:15;-3.80;1.00
21403;DHT22;10862;51.886;17.078;2024-01-07T07:08:41;-3.80;1.00
21403;DHT22;10862;51.886;17.078;2024-01-07T07:11:06;-3.80;1.00
21403;DHT22;10862;51.886;17.078;2024-01-07T07:13:32;-3.90;1.00
21403;DHT22;10862;51.886;17.078;2024-01-07T07:15:58;-3.90;1.00
21403;DHT22;10862;51.886;17.078;2024-01-07T07:18:24;-4.00;1.00
21403;DHT22;10862;51.886;17.078;2024-01-07T07:20:50;-3.90;1.00
21403;DHT22;10862;51.886;17.078;2024-01-07T07:23:15;-3.90;1.00
21403;DHT22;10862;51.886;17.078;2024-01-07T07:25:41;-4.00;1.00
21403;DHT22;10862;51.886;17.078;2024-01-07T07:28:06;-4.00;1.00
21403;DHT22;10862;51.886;17.078;2024-01-07T07:30:32;-3.80;1.00
21403;DHT22;10862;51.886;17.078;2024-01-07T07:32:58;-3.80;1.00
21403;DHT22;10862;51.886;17.078;2024-01-07T07:35:23;-3.80;1.00
21403;DHT22;10862;51.886;17.078;2024-01-07T07:37:49;-3.80;1.00
21403;DHT22;10862;51.886;17.078;2024-01-07T07:40:15;-3.70;1.00
21403;DHT22;10862;51.886;17.078;2024-01-07T07:42:40;-3.70;1.00
21403;DHT22;10862;51.886;17.078;2024-01-07T07:45:06;-3.90;1.00
21403;DHT22;10862;51.886;17.078;2024-01-07T07:47:32;-3.90;1.00
21403;DHT22;10862;51.886;17.078;2024-01-07T07:49:57;-3.90;1.00
21403;DHT22;10862;51.886;17.078;2024-01-07T07:52:23;-3.90;1.00
21403;DHT22;10862;51.886;17.078;2024-01-07T07:54:53;-3.80;1.00
21403;DHT22;10862;51.886;17.078;2024-01-07T07:57:20;-3.80;1.00
21403;DHT22;10862;51.886;17.078;2024-01-07T07:59:50;-3.70;1.00
21403;DHT22;10862;51.886;17.078;2024-01-07T08:02:16;-3.80;1.00
21403;DHT22;10862;51.886;17.078;2024-01-07T08:04:42;-3.90;1.00
21403;DHT22;10862;51.886;17.078;2024-01-07T08:07:08;-3.90;1.00
21403;DHT22;10862;51.886;17.078;2024-01-07T08:09:34;-3.80;1.00
21403;DHT22;10862;51.886;17.078;2024-01-07T08:12:03;-4.00;1.00
21403;DHT22;10862;51.886;17.078;2024-01-07T08:14:29;-3.80;24.60
21403;DHT22;10862;51.886;17.078;2024-01-07T08:16:54;-4.00;1.00
21403;DHT22;10862;51.886;17.078;2024-01-07T08:19:20;-4.10;19.50
21403;DHT22;10862;51.886;17.078;2024-01-07T08:21:46;-4.10;1.00
21403;DHT22;10862;51.886;17.078;2024-01-07T08:24:11;-4.10;1.00
21403;DHT22;10862;51.886;17.078;2024-01-07T08:26:37;-4.10;1.00
21403;DHT22;10862;51.886;17.078;2024-01-07T08:29:03;-4.10;3.00
21403;DHT22;10862;51.886;17.078;2024-01-07T08:31:29;-4.20;8.30
21403;DHT22;10862;51.886;17.078;2024-01-07T08:33:54;-4.30;1.00
21403;DHT22;10862;51.886;17.078;2024-01-07T08:36:20;-4.30;1.00
21403;DHT22;10862;51.886;17.078;2024-01-07T08:38:45;-4.40;1.00
21403;DHT22;10862;51.886;17.078;2024-01-07T08:41:11;-4.30;1.00
21403;DHT22;10862;51.886;17.078;2024-01-07T08:43:37;-4.20;1.00
21403;DHT22;10862;51.886;17.078;2024-01-07T08:46:04;-4.40;1.00
21403;DHT22;10862;51.886;17.078;2024-01-07T08:48:30;-4.50;1.00
21403;DHT22;10862;51.886;17.078;2024-01-07T08:50:55;-4.60;1.00
21403;DHT22;10862;51.886;17.078;2024-01-07T08:53:21;-4.50;1.00
21403;DHT22;10862;51.886;17.078;2024-01-07T08:55:48;-4.50;1.00
21403;DHT22;10862;51.886;17.078;2024-01-07T08:58:14;-4.50;1.00
21403;DHT22;10862;51.886;17.078;2024-01-07T09:00:40;-4.40;1.00
21403;DHT22;10862;51.886;17.078;2024-01-07T09:03:06;-4.30;1.00
21403;DHT22;10862;51.886;17.078;2024-01-07T09:05:32;-4.30;1.00
21403;DHT22;10862;51.886;17.078;2024-01-07T09:07:58;-4.30;1.00
21403;DHT22;10862;51.886;17.078;2024-01-07T09:10:24;-4.40;1.00
21403;DHT22;10862;51.886;17.078;2024-01-07T09:12:50;-4.30;1.00
21403;DHT22;10862;51.886;17.078;2024-01-07T09:15:18;-4.30;1.00
21403;DHT22;10862;51.886;17.078;2024-01-07T09:17:44;-4.30;1.00
21403;DHT22;10862;51.886;17.078;2024-01-07T09:20:10;-4.30;1.00
21403;DHT22;10862;51.886;17.078;2024-01-07T09:22:36;-4.40;1.00
21403;DHT22;10862;51.886;17.078;2024-01-07T09:25:05;-4.50;1.00
21403;DHT22;10862;51.886;17.078;2024-01-07T09:27:32;-4.50;1.00
21403;DHT22;10862;51.886;17.078;2024-01-07T09:29:58;-4.40;1.00
21403;DHT22;10862;51.886;17.078;2024-01-07T09:32:25;-4.40;1.00
21403;DHT22;10862;51.886;17.078;2024-01-07T09:34:51;-4.50;1.00
21403;DHT22;10862;51.886;17.078;2024-01-07T09:37:17;-4.50;1.00
21403;DHT22;10862;51.886;17.078;2024-01-07T09:39:43;-4.60;1.00
21403;DHT22;10862;51.886;17.078;2024-01-07T09:42:14;-4.50;1.00
21403;DHT22;10862;51.886;17.078;2024-01-07T09:44:41;-4.60;1.00
21403;DHT22;10862;51.886;17.078;2024-01-07T09:47:10;-4.60;1.00
21403;DHT22;10862;51.886;17.078;2024-01-07T09:49:37;-4.60;1.00
21403;DHT22;10862;51.886;17.078;2024-01-07T09:52:04;-4.50;1.00
21403;DHT22;10862;51.886;17.078;2024-01-07T09:54:30;-4.40;1.00
21403;DHT22;10862;51.886;17.078;2024-01-07T09:57:02;-4.40;1.00
21403;DHT22;10862;51.886;17.078;2024-01-07T09:59:31;-4.20;1.00
21403;DHT22;10862;51.886;17.078;2024-01-07T10:01:57;-4.20;1.00
21403;DHT22;10862;51.886;17.078;2024-01-07T10:04:23;-4.10;1.00
21403;DHT22;10862;51.886;17.078;2024-01-07T10:06:49;-4.40;1.00
21403;DHT22;10862;51.886;17.078;2024-01-07T10:09:16;-4.20;1.00
21403;DHT22;10862;51.886;17.078;2024-01-07T10:11:43;-4.10;1.00
21403;DHT22;10862;51.886;17.078;2024-01-07T10:14:09;-4.20;1.00
21403;DHT22;10862;51.886;17.078;2024-01-07T10:16:35;-4.10;1.00
21403;DHT22;10862;51.886;17.078;2024-01-07T10:19:01;-4.20;1.00
21403;DHT22;10862;51.886;17.078;2024-01-07T10:21:27;-4.30;1.00
21403;DHT22;10862;51.886;17.078;2024-01-07T10:24:09;-4.50;1.00
21403;DHT22;10862;51.886;17.078;2024-01-07T10:26:38;-4.40;1.00
21403;DHT22;10862;51.886;17.078;2024-01-07T10:29:04;-4.70;1.00
21403;DHT22;10862;51.886;17.078;2024-01-07T10:31:31;-4.70;1.00
21403;DHT22;10862;51.886;17.078;2024-01-07T10:33:57;-4.70;1.00
21403;DHT22;10862;51.886;17.078;2024-01-07T10:36:24;-4.60;1.00
21403;DHT22;10862;51.886;17.078;2024-01-07T10:38:50;-4.50;1.00
21403;DHT22;10862;51.886;17.078;2024-01-07T10:41:18;-4.20;1.00
21403;DHT22;10862;51.886;17.078;2024-01-07T10:43:46;-4.10;1.00
21403;DHT22;10862;51.886;17.078;2024-01-07T10:46:14;-4.10;1.00
21403;DHT22;10862;51.886;17.078;2024-01-07T10:48:54;-4.10;1.00
21403;DHT22;10862;51.886;17.078;2024-01-07T10:51:21;-4.10;1.00
21403;DHT22;10862;51.886;17.078;2024-01-07T10:53:51;-4.10;1.00
21403;DHT22;10862;51.886;17.078;2024-01-07T10:56:22;-4.00;1.00
21403;DHT22;10862;51.886;17.078;2024-01-07T10:58:50;-4.10;1.00
21403;DHT22;10862;51.886;17.078;2024-01-07T11:01:17;-4.30;1.00
21403;DHT22;10862;51.886;17.078;2024-01-07T11:09:36;-4.00;1.00
21403;DHT22;10862;51.886;17.078;2024-01-07T11:12:03;-4.20;1.00
21403;DHT22;10862;51.886;17.078;2024-01-07T11:14:39;-4.30;1.00
21403;DHT22;10862;51.886;17.078;2024-01-07T11:17:06;-4.20;1.00
21403;DHT22;10862;51.886;17.078;2024-01-07T11:19:32;-4.10;1.00
21403;DHT22;10862;51.886;17.078;2024-01-07T11:22:22;-3.90;1.00
21403;DHT22;10862;51.886;17.078;2024-01-07T11:24:50;-4.20;1.00
21403;DHT22;10862;51.886;17.078;2024-01-07T11:27:16;-4.40;1.00
21403;DHT22;10862;51.886;17.078;2024-01-07T11:29:41;-4.30;1.00
21403;DHT22;10862;51.886;17.078;2024-01-07T11:32:07;-4.20;1.00
21403;DHT22;10862;51.886;17.078;2024-01-07T11:34:43;-4.40;1.00
21403;DHT22;10862;51.886;17.078;2024-01-07T11:37:12;-4.40;1.00
21403;DHT22;10862;51.886;17.078;2024-01-07T11:39:48;-4.40;1.00
21403;DHT22;10862;51.886;17.078;2024-01-07T11:42:15;-4.40;1.00
21403;DHT22;10862;51.886;17.078;2024-01-07T11:44:54;-4.30;1.00
21403;DHT22;10862;51.886;17.078;2024-01-07T11:47:22;-4.40;1.00
21403;DHT22;10862;51.886;17.078;2024-01-07T11:49:48;-4.30;1.00
21403;DHT22;10862;51.886;17.078;2024-01-07T11:52:17;-4.10;1.00
21403;DHT22;10862;51.886;17.078;2024-01-07T11:54:47;-4.10;1.00
21403;DHT22;10862;51.886;17.078;2024-01-07T11:57:13;-4.00;1.00
21403;DHT22;10862;51.886;17.078;2024-01-07T11:59:38;-4.00;1.00
21403;DHT22;10862;51.886;17.078;2024-01-07T12:02:04;-4.00;1.00
21403;DHT22;10862;51.886;17.078;2024-01-07T12:04:31;-3.90;1.00
21403;DHT22;10862;51.886;17.078;2024-01-07T12:06:57;-3.80;1.00
21403;DHT22;10862;51.886;17.078;2024-01-07T12:09:24;-4.00;1.00
21403;DHT22;10862;51.886;17.078;2024-01-07T12:11:52;-4.30;1.00
21403;DHT22;10862;51.886;17.078;2024-01-07T12:14:18;-4.10;1.00
21403;DHT22;10862;51.886;17.078;2024-01-07T12:16:45;-4.10;1.00
21403;DHT22;10862;51.886;17.078;2024-01-07T12:19:10;-4.10;1.00
21403;DHT22;10862;51.886;17.078;2024-01-07T12:21:36;-4.00;1.00
21403;DHT22;10862;51.886;17.078;2024-01-07T12:24:03;-4.00;1.00
21403;DHT22;10862;51.886;17.078;2024-01-07T12:26:29;-4.00;1.00
21403;DHT22;10862;51.886;17.078;2024-01-07T12:28:59;-4.00;1.00
21403;DHT22;10862;51.886;17.078;2024-01-07T12:31:35;-4.00;1.00
21403;DHT22;10862;51.886;17.078;2024-01-07T12:34:02;-4.30;1.00
21403;DHT22;10862;51.886;17.078;2024-01-07T12:36:31;-4.20;1.00
21403;DHT22;10862;51.886;17.078;2024-01-07T12:38:57;-4.00;1.00
21403;DHT22;10862;51.886;17.078;2024-01-07T12:41:23;-4.10;1.00
21403;DHT22;10862;51.886;17.078;2024-01-07T12:43:49;-4.40;1.00
21403;DHT22;10862;51.886;17.078;2024-01-07T12:46:15;-4.50;1.00
21403;DHT22;10862;51.886;17.078;2024-01-07T12:48:41;-4.50;1.00
21403;DHT22;10862;51.886;17.078;2024-01-07T12:51:07;-4.70;1.00
21403;DHT22;10862;51.886;17.078;2024-01-07T12:53:32;-4.70;1.00
21403;DHT22;10862;51.886;17.078;2024-01-07T12:55:58;-4.60;1.00
21403;DHT22;10862;51.886;17.078;2024-01-07T12:58:23;-4.60;1.00
21403;DHT22;10862;51.886;17.078;2024-01-07T13:00:49;-4.50;1.00
21403;DHT22;10862;51.886;17.078;2024-01-07T13:03:15;-4.50;1.00
21403;DHT22;10862;51.886;17.078;2024-01-07T13:05:44;-4.40;1.00
21403;DHT22;10862;51.886;17.078;2024-01-07T13:08:12;-4.40;1.00
21403;DHT22;10862;51.886;17.078;2024-01-07T13:10:38;-4.30;1.00
21403;DHT22;10862;51.886;17.078;2024-01-07T13:13:04;-4.50;1.00
21403;DHT22;10862;51.886;17.078;2024-01-07T13:15:29;-4.80;1.00
21403;DHT22;10862;51.886;17.078;2024-01-07T13:17:55;-4.90;1.00
21403;DHT22;10862;51.886;17.078;2024-01-07T13:20:20;-5.00;1.00
21403;DHT22;10862;51.886;17.078;2024-01-07T13:22:46;-4.90;1.00
21403;DHT22;10862;51.886;17.078;2024-01-07T13:25:12;-4.80;1.00
21403;DHT22;10862;51.886;17.078;2024-01-07T13:27:38;-4.70;1.00
21403;DHT22;10862;51.886;17.078;2024-01-07T13:30:07;-4.60;1.00
21403;DHT22;10862;51.886;17.078;2024-01-07T13:32:32;-4.60;1.00
21403;DHT22;10862;51.886;17.078;2024-01-07T13:35:06;-4.60;1.00
21403;DHT22;10862;51.886;17.078;2024-01-07T13:37:38;-4.70;1.00
21403;DHT22;10862;51.886;17.078;2024-01-07T13:40:07;-4.90;1.00
21403;DHT22;10862;51.886;17.078;2024-01-07T13:42:36;-4.90;1.00
21403;DHT22;10862;51.886;17.078;2024-01-07T13:45:03;-4.90;1.00
21403;DHT22;10862;51.886;17.078;2024-01-07T13:47:29;-5.00;1.00
21403;DHT22;10862;51.886;17.078;2024-01-07T13:49:54;-5.00;1.00
21403;DHT22;10862;51.886;17.078;2024-01-07T13:52:20;-5.20;1.00
21403;DHT22;10862;51.886;17.078;2024-01-07T13:54:46;-5.20;1.00
21403;DHT22;10862;51.886;17.078;2024-01-07T13:57:15;-5.10;1.00
21403;DHT22;10862;51.886;17.078;2024-01-07T13:59:41;-5.10;1.00
21403;DHT22;10862;51.886;17.078;2024-01-07T14:02:08;-5.00;1.00
21403;DHT22;10862;51.886;17.078;2024-01-07T14:04:33;-5.10;1.00
21403;DHT22;10862;51.886;17.078;2024-01-07T14:06:59;-5.10;1.00
21403;DHT22;10862;51.886;17.078;2024-01-07T14:09:25;-5.40;1.00
21403;DHT22;10862;51.886;17.078;2024-01-07T14:11:51;-5.50;1.00
21403;DHT22;10862;51.886;17.078;2024-01-07T14:14:17;-5.60;1.00
21403;DHT22;10862;51.886;17.078;2024-01-07T14:16:45;-5.50;1.00
21403;DHT22;10862;51.886;17.078;2024-01-07T14:19:11;-5.40;1.00
21403;DHT22;10862;51.886;17.078;2024-01-07T14:21:36;-5.40;1.00
21403;DHT22;10862;51.886;17.078;2024-01-07T14:24:02;-5.60;1.00
21403;DHT22;10862;51.886;17.078;2024-01-07T14:26:28;-5.60;1.00
21403;DHT22;10862;51.886;17.078;2024-01-07T14:28:54;-5.70;1.00
21403;DHT22;10862;51.886;17.078;2024-01-07T14:31:20;-5.90;1.00
21403;DHT22;10862;51.886;17.078;2024-01-07T14:33:45;-5.90;1.00
21403;DHT22;10862;51.886;17.078;2024-01-07T14:36:12;-5.80;1.00
21403;DHT22;10862;51.886;17.078;2024-01-07T14:38:45;-5.70;1.00
21403;DHT22;10862;51.886;17.078;2024-01-07T14:41:15;-5.70;1.00
21403;DHT22;10862;51.886;17.078;2024-01-07T14:43:41;-5.90;1.00
21403;DHT22;10862;51.886;17.078;2024-01-07T14:46:10;-5.90;1.00
21403;DHT22;10862;51.886;17.078;2024-01-07T14:48:35;-6.10;1.00
21403;DHT22;10862;51.886;17.078;2024-01-07T14:51:02;-6.30;1.00
21403;DHT22;10862;51.886;17.078;2024-01-07T14:53:28;-6.20;1.00
21403;DHT22;10862;51.886;17.078;2024-01-07T14:55:54;-6.30;1.00
21403;DHT22;10862;51.886;17.078;2024-01-07T14:58:20;-6.30;1.00
21403;DHT22;10862;51.886;17.078;2024-01-07T15:00:48;-6.40;1.00
21403;DHT22;10862;51.886;17.078;2024-01-07T15:03:13;-6.30;1.00
21403;DHT22;10862;51.886;17.078;2024-01-07T15:05:39;-6.30;1.00
21403;DHT22;10862;51.886;17.078;2024-01-07T15:08:06;-6.10;1.00
21403;DHT22;10862;51.886;17.078;2024-01-07T15:10:32;-5.90;1.00
21403;DHT22;10862;51.886;17.078;2024-01-07T15:12:58;-5.90;1.00
21403;DHT22;10862;51.886;17.078;2024-01-07T15:15:24;-6.00;1.00
21403;DHT22;10862;51.886;17.078;2024-01-07T15:17:55;-5.90;1.00
21403;DHT22;10862;51.886;17.078;2024-01-07T15:20:21;-5.90;1.00
21403;DHT22;10862;51.886;17.078;2024-01-07T15:22:46;-5.90;1.00
21403;DHT22;10862;51.886;17.078;2024-01-07T15:25:14;-5.90;1.00
21403;DHT22;10862;51.886;17.078;2024-01-07T15:27:40;-5.90;1.00